createdAt,value
2022-11-28T00:45:39.730Z,15.13
2022-11-28T06:02:18.751Z,16.15
2022-11-28T06:04:46.343Z,17.00
2022-11-28T06:07:15.906Z,16.80
2022-11-28T06:09:45.733Z,17.00
2022-11-28T06:12:17.231Z,16.92
2022-11-28T06:56:53.931Z,19.25
2022-11-28T07:12:42.797Z,19.25
2022-11-28T07:23:44.039Z,19.38
2022-11-28T07:39:29.912Z,19.15
2022-11-28T07:50:28.703Z,18.25
2022-11-28T08:05:43.307Z,19.13
2022-11-28T08:08:10.685Z,18.63
2022-11-28T08:10:38.135Z,17.15
2022-11-28T08:35:25.188Z,18.95
2022-11-28T08:40:19.850Z,18.52
2022-11-28T08:42:47.216Z,18.60
2022-11-28T08:45:16.284Z,18.25
2022-11-28T08:47:44.008Z,19.80
2022-11-28T08:54:29.733Z,20.02
2022-11-28T08:56:58.980Z,18.63
2022-11-28T08:59:30.227Z,19.27
2022-11-28T09:01:58.639Z,17.38
2022-11-28T09:04:26.210Z,21.13
2022-11-28T09:06:53.926Z,20.00
2022-11-28T09:09:21.922Z,18.65
2022-11-28T09:11:49.365Z,20.38
2022-11-28T09:14:17.058Z,18.13
2022-11-28T09:16:44.546Z,18.52
2022-11-28T09:19:12.177Z,17.73
2022-11-28T09:21:40.719Z,18.08
2022-11-28T09:24:08.907Z,18.55
2022-11-28T09:26:36.751Z,17.95
2022-11-28T09:29:04.249Z,19.90
2022-11-28T09:31:31.684Z,18.52
2022-11-28T09:33:59.232Z,18.20
2022-11-28T09:36:28.506Z,18.50
2022-11-28T09:38:55.997Z,19.33
2022-11-28T09:41:42.229Z,20.63
2022-11-28T09:44:22.314Z,18.35
2022-11-28T09:46:55.853Z,18.65
2022-11-28T09:49:45.717Z,18.95
2022-11-28T09:52:35.346Z,20.92
2022-11-28T09:55:35.806Z,18.92
2022-11-28T09:58:36.672Z,19.30
2022-11-28T10:01:26.795Z,20.52
2022-11-28T10:04:09.474Z,18.45
2022-11-28T10:06:45.439Z,19.23
2022-11-28T10:09:39.949Z,19.88
2022-11-28T10:12:34.290Z,18.23
2022-11-28T10:15:04.700Z,20.15
2022-11-28T10:17:54.751Z,20.85
2022-11-28T10:20:24.370Z,21.73
2022-11-28T10:23:03.080Z,19.08
2022-11-28T10:25:43.390Z,18.95
2022-11-28T10:28:16.056Z,21.40
2022-11-28T10:30:48.156Z,22.27
2022-11-28T10:33:27.462Z,21.20
2022-11-28T10:36:02.627Z,18.35
2022-11-28T10:38:34.182Z,19.85
2022-11-28T10:41:37.075Z,21.85
2022-11-28T10:44:23.500Z,20.45
2022-11-28T10:47:01.877Z,20.85
2022-11-28T10:49:47.752Z,20.90
2022-11-28T10:52:21.686Z,21.83
2022-11-28T10:55:20.134Z,21.67
2022-11-28T10:58:09.332Z,19.42
2022-11-28T11:00:37.523Z,18.73
2022-11-28T11:03:06.016Z,21.30
2022-11-28T11:05:35.579Z,21.98
2022-11-28T11:08:08.916Z,19.02
2022-11-28T11:10:49.301Z,21.27
2022-11-28T11:13:21.421Z,20.63
2022-11-28T11:15:51.908Z,17.55
2022-11-28T11:18:27.982Z,21.55
2022-11-28T11:21:18.378Z,21.95
2022-11-28T11:23:46.485Z,20.58
2022-11-28T11:26:24.020Z,21.30
2022-11-28T11:28:52.376Z,18.55
2022-11-28T11:31:28.419Z,21.70
2022-11-28T11:34:03.405Z,20.35
2022-11-28T11:36:36.332Z,18.58
2022-11-28T11:39:06.984Z,21.40
2022-11-28T11:41:34.799Z,19.60
2022-11-28T11:44:14.617Z,20.48
2022-11-28T11:46:51.419Z,18.75
2022-11-28T11:49:49.042Z,19.80
2022-11-28T11:52:26.768Z,16.92
2022-11-28T11:54:57.256Z,18.35
2022-11-28T11:57:37.445Z,17.88
2022-11-28T12:00:07.359Z,16.05
2022-11-28T12:02:45.286Z,17.95
2022-11-28T12:05:21.985Z,17.55
2022-11-28T12:08:00.263Z,18.70
2022-11-28T12:10:31.230Z,16.40
2022-11-28T12:12:58.608Z,15.77
2022-11-28T12:15:47.716Z,16.85
2022-11-28T12:18:53.844Z,18.15
2022-11-28T12:21:39.968Z,18.35
2022-11-28T12:26:45.134Z,17.55
2022-11-28T12:29:12.599Z,18.38
2022-11-28T12:31:55.442Z,18.17
2022-11-28T12:34:41.394Z,17.88
2022-11-28T12:38:12.178Z,18.92
2022-11-28T12:41:01.425Z,16.25
2022-11-28T12:43:28.845Z,17.73
2022-11-28T12:46:05.289Z,17.42
2022-11-28T12:48:58.616Z,15.35
2022-11-28T12:51:34.267Z,18.40
2022-11-28T12:56:54.645Z,17.75
2022-11-28T12:59:27.585Z,18.33
2022-11-28T13:02:18.004Z,20.08
2022-11-28T13:05:10.670Z,22.35
2022-11-28T13:08:15.291Z,21.38
2022-11-28T13:10:50.693Z,23.80
2022-11-28T13:13:41.316Z,22.00
2022-11-28T13:16:26.671Z,21.88
2022-11-28T13:19:00.531Z,21.63
2022-11-28T13:21:37.071Z,22.65
2022-11-28T13:24:26.056Z,23.10
2022-11-28T13:27:32.524Z,25.05
2022-11-28T13:30:20.367Z,21.10
2022-11-28T13:33:00.015Z,23.83
2022-11-28T13:35:28.654Z,20.40
2022-11-28T13:38:47.178Z,25.15
2022-11-28T13:41:43.867Z,24.15
2022-11-28T13:44:28.677Z,23.77
2022-11-28T13:46:56.797Z,20.65
2022-11-28T13:49:26.496Z,23.83
2022-11-28T13:52:18.849Z,22.77
2022-11-28T13:54:55.625Z,25.27
2022-11-28T13:57:39.284Z,22.50
2022-11-28T14:00:25.254Z,22.67
2022-11-28T14:02:55.052Z,23.92
2022-11-28T14:05:34.949Z,28.55
2022-11-28T14:08:04.201Z,23.73
2022-11-28T14:10:38.220Z,25.25
2022-11-28T14:13:28.147Z,26.20
2022-11-28T14:16:01.260Z,25.52
2022-11-28T14:19:10.339Z,31.13
2022-11-28T14:21:40.977Z,24.95
2022-11-28T14:24:27.141Z,26.55
2022-11-28T14:29:35.310Z,27.63
2022-11-28T14:34:50.947Z,26.27
2022-11-28T14:37:21.490Z,25.42
2022-11-28T14:39:49.928Z,24.58
2022-11-28T14:42:44.157Z,26.15
2022-11-28T14:54:44.362Z,24.77
2022-11-28T15:09:49.986Z,26.92
2022-11-28T15:30:04.918Z,28.40
2022-11-28T15:46:26.880Z,25.30
2022-11-28T15:57:43.859Z,27.40
2022-11-28T16:00:15.841Z,25.15
2022-11-28T16:02:44.339Z,25.75
2022-11-28T16:05:16.150Z,26.77
2022-11-28T16:07:44.525Z,26.52
2022-11-28T16:10:25.132Z,26.77
2022-11-28T16:13:01.217Z,30.02
2022-11-28T16:37:34.928Z,25.63
2022-11-28T16:48:38.749Z,28.35
2022-11-28T16:51:11.652Z,26.55
2022-11-28T17:10:46.281Z,28.48
2022-11-28T17:17:39.006Z,29.15
2022-11-28T17:20:07.057Z,31.67
2022-11-28T17:22:59.978Z,28.60
2022-11-28T17:25:27.446Z,29.25
2022-11-28T17:27:54.934Z,30.15
2022-11-28T17:30:22.488Z,29.50
2022-11-28T17:37:40.885Z,29.65
2022-11-28T20:41:54.894Z,31.15
2022-11-28T23:04:06.507Z,27.60
2022-11-28T23:15:52.889Z,26.48
2022-11-28T23:22:51.635Z,24.63
2022-11-28T23:30:10.316Z,24.85
